Time;durP1;ratioP1;P1;durP2;ratioP2;P2;SDS_P1;SDS_P2;PMS_P1;PMS_P2;Temp;Humidity;BMP_temperature;BMP_pressure;BME280_temperature;BME280_humidity;BME280_pressure;Samples;Min_cycle;Max_cycle;Signal;HPM_P1;HPM_P2
2023/03/06 00:04:07;;;;;;;41.13;22.83;;;;;3.60;100414.00;;;;9659144;30;20267;-79
2023/03/06 00:09:09;;;;;;;35.27;21.03;;;;;3.60;100410.00;;;;9640926;30;20228;-79
2023/03/06 00:14:11;;;;;;;38.13;21.73;;;;;3.60;100412.00;;;;9626952;30;20252;-80
2023/03/06 00:19:13;;;;;;;35.53;21.17;;;;;3.50;100405.00;;;;9646371;30;20216;-79
2023/03/06 00:24:15;;;;;;;36.43;21.73;;;;;3.50;100404.00;;;;9646334;30;20231;-79
2023/03/06 00:29:17;;;;;;;38.27;21.30;;;;;3.50;100401.00;;;;9646390;30;20610;-80
2023/03/06 00:34:19;;;;;;;39.23;21.73;;;;;3.50;100394.00;;;;9609301;30;20240;-79
2023/03/06 00:39:22;;;;;;;37.50;20.43;;;;;3.50;100392.00;;;;9619654;30;20216;-79
2023/03/06 00:44:24;;;;;;;39.13;21.33;;;;;3.50;100386.00;;;;9633470;30;20205;-79
2023/03/06 00:49:26;;;;;;;33.57;20.33;;;;;3.50;100376.00;;;;9652306;30;20243;-80
2023/03/06 00:54:28;;;;;;;34.13;20.97;;;;;3.50;100380.00;;;;9640005;30;20212;-80
2023/03/06 00:59:29;;;;;;;35.10;20.73;;;;;3.40;100372.00;;;;9639586;30;20892;-80
2023/03/06 01:04:31;;;;;;;36.53;21.07;;;;;3.40;100369.00;;;;9651838;30;20236;-79
2023/03/06 01:09:33;;;;;;;33.60;19.77;;;;;3.40;100371.00;;;;9640060;30;20208;-80
2023/03/06 01:14:35;;;;;;;33.13;21.07;;;;;3.40;100374.00;;;;9625319;30;20737;-79
2023/03/06 01:19:38;;;;;;;38.73;22.43;;;;;3.30;100373.00;;;;9652791;30;20232;-79
2023/03/06 01:24:40;;;;;;;40.67;20.93;;;;;3.30;100370.00;;;;9638737;30;20200;-79
2023/03/06 01:29:42;;;;;;;38.40;21.90;;;;;3.20;100350.00;;;;9634071;30;20548;-79
2023/03/06 01:34:44;;;;;;;36.40;21.27;;;;;3.20;100354.00;;;;9618977;30;20273;-79
2023/03/06 01:39:46;;;;;;;39.10;21.10;;;;;3.20;100346.00;;;;9652856;30;20212;-80
2023/03/06 01:45:03;;;;;;;40.97;23.17;;;;;3.20;100342.00;;;;9622034;30;20693;-79
2023/03/06 01:50:08;;;;;;;40.17;21.43;;;;;3.20;100335.00;;;;9623698;30;20201;-79
2023/03/06 01:55:15;;;;;;;38.27;22.17;;;;;3.20;100332.00;;;;9637609;30;20271;-79
2023/03/06 02:00:21;;;;;;;36.60;20.30;;;;;3.20;100322.00;;;;9643733;30;20298;-79
2023/03/06 02:05:24;;;;;;;42.47;22.37;;;;;3.10;100332.00;;;;9637423;30;20303;-80
2023/03/06 02:10:26;;;;;;;41.07;21.73;;;;;3.10;100322.00;;;;9638201;30;20208;-80
2023/03/06 02:15:29;;;;;;;41.20;22.80;;;;;3.10;100319.00;;;;9651775;30;20551;-79
2023/03/06 02:20:51;;;;;;;44.23;22.33;;;;;3.10;100311.00;;;;9647707;30;20211;-79
2023/03/06 02:25:54;;;;;;;38.13;20.40;;;;;3.10;100305.00;;;;9623560;30;20633;-79
2023/03/06 02:30:56;;;;;;;36.10;20.37;;;;;3.10;100304.00;;;;9637698;30;20216;-79
2023/03/06 02:36:01;;;;;;;39.57;21.73;;;;;3.10;100307.00;;;;9651262;30;20315;-79
2023/03/06 02:41:05;;;;;;;36.33;22.00;;;;;3.10;100296.00;;;;9636954;30;20204;-79
2023/03/06 02:46:07;;;;;;;37.57;20.80;;;;;3.10;100288.00;;;;9637510;30;20200;-79
2023/03/06 02:51:09;;;;;;;41.50;21.43;;;;;3.20;100287.00;;;;9637110;30;20219;-79
2023/03/06 02:56:11;;;;;;;39.37;22.73;;;;;3.10;100282.00;;;;9585959;30;20252;-80
2023/03/06 03:01:15;;;;;;;38.80;22.30;;;;;3.10;100279.00;;;;9661012;30;20259;-80
2023/03/06 03:06:18;;;;;;;40.40;22.03;;;;;3.10;100266.00;;;;9639410;30;20291;-79
2023/03/06 03:11:20;;;;;;;34.77;21.33;;;;;3.20;100263.00;;;;9636738;30;20239;-80
2023/03/06 03:16:22;;;;;;;42.23;23.27;;;;;3.20;100263.00;;;;9620481;30;20215;-80
2023/03/06 03:21:24;;;;;;;35.77;20.80;;;;;3.10;100251.00;;;;9628727;30;20271;-80
2023/03/06 03:26:28;;;;;;;42.87;22.63;;;;;3.10;100255.00;;;;9656805;30;20622;-80
2023/03/06 03:31:36;;;;;;;41.83;22.33;;;;;3.10;100248.00;;;;9635185;30;20716;-80
2023/03/06 03:36:38;;;;;;;45.50;23.07;;;;;3.10;100239.00;;;;9629499;30;20240;-80
2023/03/06 03:41:42;;;;;;;38.60;21.30;;;;;3.10;100237.00;;;;9656676;30;20201;-79
2023/03/06 03:46:45;;;;;;;41.13;22.40;;;;;3.00;100242.00;;;;9657622;30;20212;-80
2023/03/06 03:51:53;;;;;;;39.40;22.70;;;;;3.00;100242.00;;;;9642458;30;20216;-80
2023/03/06 03:56:57;;;;;;;42.67;22.50;;;;;3.00;100236.00;;;;9627743;30;20442;-80
2023/03/06 04:02:05;;;;;;;45.63;23.83;;;;;3.00;100234.00;;;;9652241;30;20270;-79
2023/03/06 04:07:14;;;;;;;46.00;24.13;;;;;3.00;100237.00;;;;9606773;30;20690;-80
2023/03/06 04:12:17;;;;;;;45.83;25.00;;;;;3.00;100216.00;;;;9615207;30;20216;-80
2023/03/06 04:17:19;;;;;;;46.97;24.90;;;;;3.00;100221.00;;;;9655064;30;20240;-80
2023/03/06 04:22:22;;;;;;;46.00;26.03;;;;;3.00;100216.00;;;;9609712;30;20209;-79
2023/03/06 04:27:24;;;;;;;51.40;27.33;;;;;2.90;100201.00;;;;9627331;30;20634;-79
2023/03/06 04:32:26;;;;;;;54.10;26.83;;;;;2.90;100196.00;;;;9652691;30;20280;-80
2023/03/06 04:37:29;;;;;;;50.50;27.53;;;;;2.90;100207.00;;;;9655271;30;20227;-79
2023/03/06 04:42:33;;;;;;;50.87;26.93;;;;;2.90;100197.00;;;;9655059;30;20201;-80
2023/03/06 04:47:35;;;;;;;46.20;26.13;;;;;2.90;100190.00;;;;9641783;30;20207;-79
2023/03/06 04:52:39;;;;;;;48.97;25.37;;;;;2.90;100173.00;;;;9618985;30;20206;-79
2023/03/06 04:57:42;;;;;;;51.00;26.23;;;;;2.90;100171.00;;;;9620512;30;20209;-79
2023/03/06 05:02:47;;;;;;;46.87;25.50;;;;;2.80;100172.00;;;;9636673;30;20225;-79
2023/03/06 05:07:49;;;;;;;53.67;26.63;;;;;2.80;100164.00;;;;9609380;30;20963;-80
2023/03/06 05:12:51;;;;;;;55.33;27.10;;;;;2.80;100174.00;;;;9619354;30;20774;-80
2023/03/06 05:17:54;;;;;;;55.60;27.23;;;;;2.80;100172.00;;;;9644062;30;20216;-79
2023/03/06 05:22:56;;;;;;;50.97;26.63;;;;;2.80;100163.00;;;;9663426;30;20221;-80
2023/03/06 05:27:58;;;;;;;52.60;26.93;;;;;2.80;100161.00;;;;9671043;30;20543;-79
2023/03/06 05:33:00;;;;;;;55.50;28.10;;;;;2.70;100155.00;;;;9638805;30;20270;-79
2023/03/06 05:38:02;;;;;;;49.43;25.07;;;;;2.70;100153.00;;;;9624999;30;20216;-79
2023/03/06 05:43:06;;;;;;;46.13;25.03;;;;;2.70;100171.00;;;;9646836;30;20220;-79
2023/03/06 05:48:11;;;;;;;56.77;26.20;;;;;2.80;100162.00;;;;9639040;30;20235;-80
2023/03/06 05:53:13;;;;;;;49.53;25.60;;;;;2.90;100172.00;;;;9640154;30;20597;-80
2023/03/06 05:58:16;;;;;;;49.97;25.10;;;;;2.90;100163.00;;;;9629064;30;20240;-81
2023/03/06 06:03:19;;;;;;;45.60;23.43;;;;;2.90;100167.00;;;;9639437;30;20193;-79
2023/03/06 06:08:22;;;;;;;47.83;24.47;;;;;2.90;100160.00;;;;9624703;30;20221;-80
2023/03/06 06:13:23;;;;;;;51.03;26.60;;;;;2.90;100156.00;;;;9652666;30;20701;-79
2023/03/06 06:18:25;;;;;;;44.83;25.00;;;;;2.90;100152.00;;;;9638306;30;20271;-80
2023/03/06 06:23:27;;;;;;;47.63;24.20;;;;;2.90;100154.00;;;;9638043;30;20209;-80
2023/03/06 06:28:30;;;;;;;45.60;24.57;;;;;2.90;100165.00;;;;9596521;30;20212;-80
2023/03/06 06:33:32;;;;;;;56.87;25.13;;;;;2.90;100160.00;;;;9618167;30;20221;-79
2023/03/06 06:38:33;;;;;;;41.70;24.10;;;;;2.90;100158.00;;;;9626803;30;20204;-80
2023/03/06 06:43:35;;;;;;;46.97;25.30;;;;;3.00;100163.00;;;;9644082;30;20626;-80
2023/03/06 06:48:37;;;;;;;47.00;25.60;;;;;3.00;100175.00;;;;9671233;30;20203;-79
2023/03/06 06:53:39;;;;;;;50.43;27.23;;;;;3.00;100188.00;;;;9666439;30;20267;-80
2023/03/06 06:58:41;;;;;;;48.33;24.30;;;;;3.10;100164.00;;;;9643895;30;20844;-80
2023/03/06 07:03:43;;;;;;;49.40;25.60;;;;;3.10;100171.00;;;;9644711;30;20693;-80
2023/03/06 07:08:45;;;;;;;50.37;26.67;;;;;3.20;100166.00;;;;9629460;30;20579;-79
2023/03/06 07:13:48;;;;;;;51.83;26.23;;;;;3.60;100172.00;;;;9623654;30;20757;-79
2023/03/06 07:18:49;;;;;;;52.87;26.20;;;;;3.70;100165.00;;;;9622725;30;20216;-80
2023/03/06 07:23:53;;;;;;;50.10;26.33;;;;;3.60;100160.00;;;;9652964;30;20212;-80
2023/03/06 07:28:55;;;;;;;51.67;26.93;;;;;3.70;100167.00;;;;9669691;30;20205;-79
2023/03/06 07:33:57;;;;;;;50.13;26.47;;;;;3.90;100156.00;;;;9643752;30;20299;-80
2023/03/06 07:38:59;;;;;;;44.90;24.57;;;;;4.30;100154.00;;;;9628590;30;20271;-80
2023/03/06 07:44:01;;;;;;;51.00;26.17;;;;;4.60;100153.00;;;;9642880;30;20542;-80
2023/03/06 07:49:03;;;;;;;49.47;27.70;;;;;4.90;100157.00;;;;9643427;30;20208;-79
2023/03/06 07:54:05;;;;;;;49.60;26.97;;;;;5.20;100157.00;;;;9625785;30;20319;-79
2023/03/06 07:59:09;;;;;;;50.67;27.53;;;;;5.50;100154.00;;;;9651782;30;20267;-80
2023/03/06 08:04:11;;;;;;;44.33;26.13;;;;;5.70;100161.00;;;;9609440;30;20260;-80
2023/03/06 08:09:13;;;;;;;46.93;27.43;;;;;5.90;100162.00;;;;9628326;30;20208;-80
2023/03/06 08:14:15;;;;;;;39.60;24.87;;;;;5.90;100157.00;;;;9628184;30;20279;-80
2023/03/06 08:19:18;;;;;;;44.13;24.97;;;;;6.30;100161.00;;;;9629750;30;20215;-80
2023/03/06 08:24:20;;;;;;;39.93;23.33;;;;;6.70;100152.00;;;;9625970;30;20200;-80
2023/03/06 08:29:22;;;;;;;37.70;23.77;;;;;7.10;100152.00;;;;9641359;30;20708;-80
2023/03/06 08:34:25;;;;;;;40.23;24.63;;;;;7.60;100153.00;;;;9653376;30;20227;-80
2023/03/06 08:39:27;;;;;;;38.50;24.70;;;;;8.30;100156.00;;;;9655353;30;20211;-80
2023/03/06 08:44:29;;;;;;;41.27;23.97;;;;;8.80;100164.00;;;;9619832;30;20239;-80
2023/03/06 08:49:31;;;;;;;37.20;23.50;;;;;9.30;100167.00;;;;9616664;30;20208;-80
2023/03/06 08:54:34;;;;;;;31.60;20.73;;;;;10.10;100157.00;;;;9621592;30;20224;-77
2023/03/06 08:59:37;;;;;;;32.90;21.70;;;;;10.20;100164.00;;;;9653727;30;20594;-80
2023/03/06 09:04:39;;;;;;;31.97;21.97;;;;;10.00;100169.00;;;;9654115;30;20669;-78
2023/03/06 09:09:41;;;;;;;40.40;26.87;;;;;9.70;100169.00;;;;9638874;30;20211;-79
2023/03/06 09:14:43;;;;;;;35.77;22.87;;;;;9.70;100156.00;;;;9605703;30;20236;-78
2023/03/06 09:19:45;;;;;;;33.60;21.60;;;;;9.70;100155.00;;;;9605430;30;20224;-80
2023/03/06 09:24:47;;;;;;;44.63;24.30;;;;;9.80;100148.00;;;;9647165;30;20208;-77
2023/03/06 09:29:49;;;;;;;36.37;22.90;;;;;9.70;100159.00;;;;9626439;30;20205;-80
2023/03/06 09:34:52;;;;;;;33.67;22.03;;;;;9.60;100158.00;;;;9626735;30;20217;-79
2023/03/06 09:39:53;;;;;;;30.63;21.97;;;;;9.60;100162.00;;;;9653289;30;20708;-80
2023/03/06 09:44:58;;;;;;;35.47;21.73;;;;;9.40;100165.00;;;;9612643;30;20225;-79
2023/03/06 09:50:29;;;;;;;33.60;22.20;;;;;9.10;100173.00;;;;9626512;30;20219;-79
2023/03/06 09:55:39;;;;;;;29.97;20.60;;;;;8.90;100164.00;;;;9627123;30;20598;-80
2023/03/06 10:01:11;;;;;;;36.67;21.03;;;;;8.70;100165.00;;;;9628307;30;20330;-79
2023/03/06 10:06:22;;;;;;;34.43;21.37;;;;;8.70;100172.00;;;;9659365;30;20558;-80
2023/03/06 10:11:52;;;;;;;39.57;23.50;;;;;8.50;100174.00;;;;9653245;30;20208;-79
2023/03/06 10:16:54;;;;;;;36.17;23.63;;;;;8.70;100171.00;;;;9652155;30;20303;-80
2023/03/06 10:22:15;;;;;;;34.37;21.27;;;;;9.00;100173.00;;;;9638535;30;20209;-80
2023/03/06 10:27:17;;;;;;;33.63;22.27;;;;;9.20;100158.00;;;;9643606;30;20204;-80
2023/03/06 10:32:26;;;;;;;38.73;23.20;;;;;9.20;100151.00;;;;9639581;30;20251;-80
2023/03/06 10:37:40;;;;;;;35.67;20.60;;;;;9.40;100145.00;;;;9638644;30;20208;-80
2023/03/06 10:42:42;;;;;;;31.67;21.23;;;;;9.70;100149.00;;;;9656429;30;20215;-80
2023/03/06 10:47:45;;;;;;;34.80;21.40;;;;;9.70;100147.00;;;;9638223;30;20204;-80
2023/03/06 10:53:03;;;;;;;33.03;20.53;;;;;9.70;100144.00;;;;9652148;30;20342;-80
2023/03/06 10:58:27;;;;;;;30.67;20.57;;;;;9.40;100136.00;;;;9652304;30;20260;-81
2023/03/06 11:03:29;;;;;;;35.13;21.80;;;;;9.80;100134.00;;;;9624471;30;20850;-80
2023/03/06 11:08:32;;;;;;;34.30;21.10;;;;;9.30;100138.00;;;;9634385;30;20215;-80
2023/03/06 11:13:36;;;;;;;32.13;21.37;;;;;8.80;100130.00;;;;9652856;30;20224;-80
2023/03/06 11:18:41;;;;;;;32.00;19.87;;;;;8.30;100124.00;;;;9637737;30;20205;-80
2023/03/06 11:23:45;;;;;;;30.87;19.87;;;;;8.20;100132.00;;;;9633423;30;20210;-79
2023/03/06 11:28:59;;;;;;;34.80;19.87;;;;;8.10;100127.00;;;;9626545;30;20216;-79
2023/03/06 11:34:10;;;;;;;30.50;18.27;;;;;8.20;100107.00;;;;9643070;30;20283;-79
2023/03/06 11:39:42;;;;;;;26.23;16.70;;;;;8.10;100107.00;;;;9639417;30;20581;-80
2023/03/06 11:45:12;;;;;;;29.83;18.20;;;;;7.80;100105.00;;;;9658162;30;20654;-80
2023/03/06 11:50:40;;;;;;;27.40;16.73;;;;;7.70;100096.00;;;;9650319;30;20297;-80
2023/03/06 11:56:04;;;;;;;28.67;18.07;;;;;7.50;100092.00;;;;9596226;30;20273;-80
2023/03/06 12:01:21;;;;;;;30.00;17.97;;;;;7.70;100089.00;;;;9643578;30;20307;-80
2023/03/06 12:06:46;;;;;;;30.30;17.53;;;;;7.80;100083.00;;;;9656075;30;20203;-80
2023/03/06 12:11:51;;;;;;;33.03;19.37;;;;;7.80;100076.00;;;;9657480;30;20742;-80
2023/03/06 12:17:25;;;;;;;32.73;18.10;;;;;8.10;100070.00;;;;9628923;30;20217;-80
2023/03/06 12:22:40;;;;;;;24.03;14.90;;;;;8.90;100059.00;;;;9656639;30;20211;-81
2023/03/06 12:28:15;;;;;;;25.10;15.13;;;;;9.40;100057.00;;;;9659805;30;20298;-80
2023/03/06 12:33:18;;;;;;;22.53;14.07;;;;;9.50;100052.00;;;;9618103;30;20589;-80
2023/03/06 12:38:22;;;;;;;22.40;14.07;;;;;9.70;100045.00;;;;9630369;30;20205;-81
2023/03/06 12:43:45;;;;;;;23.93;14.50;;;;;10.10;100049.00;;;;9656983;30;20204;-80
2023/03/06 12:49:28;;;;;;;22.83;14.10;;;;;10.20;100046.00;;;;9654350;30;20721;-81
2023/03/06 12:54:37;;;;;;;23.40;15.73;;;;;10.00;100032.00;;;;9641784;30;20283;-80
2023/03/06 12:59:47;;;;;;;26.53;16.50;;;;;10.00;100025.00;;;;9635727;30;20236;-80
2023/03/06 13:05:20;;;;;;;23.90;15.47;;;;;10.20;100020.00;;;;9621108;30;20227;-80
2023/03/06 13:10:29;;;;;;;23.13;15.20;;;;;10.20;100023.00;;;;9620980;30;20550;-80
2023/03/06 13:15:36;;;;;;;26.83;18.10;;;;;9.60;100016.00;;;;9623280;30;20247;-80
2023/03/06 13:20:43;;;;;;;28.57;18.10;;;;;9.00;100011.00;;;;9605938;30;20667;-80
2023/03/06 13:25:48;;;;;;;27.17;17.43;;;;;8.60;100012.00;;;;9621926;30;20674;-80
2023/03/06 13:30:51;;;;;;;29.00;16.97;;;;;8.90;100006.00;;;;9652822;30;20215;-80
2023/03/06 13:35:56;;;;;;;29.07;17.33;;;;;9.90;100003.00;;;;9640615;30;20693;-80
2023/03/06 13:41:32;;;;;;;31.33;18.20;;;;;10.10;99993.00;;;;9654460;30;20209;-80
2023/03/06 13:46:36;;;;;;;29.37;18.17;;;;;9.90;99997.00;;;;9626214;30;20781;-80
2023/03/06 13:52:03;;;;;;;33.87;18.10;;;;;10.40;99987.00;;;;9677446;30;20683;-81
2023/03/06 13:57:20;;;;;;;32.57;20.53;;;;;12.50;99974.00;;;;9634672;30;20357;-81
2023/03/06 14:02:51;;;;;;;28.17;18.60;;;;;13.30;99982.00;;;;9642261;30;20239;-80
2023/03/06 14:08:12;;;;;;;30.20;17.80;;;;;10.20;99977.00;;;;9619383;30;20278;-81
2023/03/06 14:13:22;;;;;;;29.23;18.27;;;;;10.30;99941.00;;;;9636967;30;20216;-81
2023/03/06 14:18:38;;;;;;;27.10;19.17;;;;;11.20;99959.00;;;;9639383;30;20215;-80
2023/03/06 14:23:43;;;;;;;32.67;21.20;;;;;10.20;99946.00;;;;9620805;30;20567;-80
2023/03/06 14:28:51;;;;;;;33.73;23.17;;;;;12.00;99924.00;;;;9627035;30;20211;-80
2023/03/06 14:34:04;;;;;;;29.30;19.87;;;;;12.00;99925.00;;;;9624576;30;20295;-80
2023/03/06 14:39:31;;;;;;;31.83;22.30;;;;;11.00;99934.00;;;;9637260;30;20201;-80
2023/03/06 14:44:33;;;;;;;30.43;18.70;;;;;10.70;99930.00;;;;9646337;30;20212;-80
2023/03/06 14:49:36;;;;;;;22.60;15.80;;;;;10.40;99915.00;;;;9639264;30;20268;-80
2023/03/06 14:54:43;;;;;;;24.53;16.80;;;;;10.30;99914.00;;;;9635185;30;20578;-80
2023/03/06 14:59:55;;;;;;;24.13;16.80;;;;;10.90;99902.00;;;;9649391;30;20228;-80
2023/03/06 15:05:02;;;;;;;24.17;15.20;;;;;10.40;99895.00;;;;9644768;30;20233;-80
2023/03/06 15:10:09;;;;;;;22.87;14.67;;;;;9.70;99891.00;;;;9656526;30;20271;-80
2023/03/06 15:15:11;;;;;;;24.83;16.20;;;;;9.40;99887.00;;;;9658323;30;20224;-80
2023/03/06 15:20:40;;;;;;;21.63;13.80;;;;;9.20;99877.00;;;;9644342;30;20205;-81
2023/03/06 15:25:59;;;;;;;23.37;15.47;;;;;8.90;99873.00;;;;9636881;30;20583;-80
2023/03/06 15:31:24;;;;;;;24.63;15.80;;;;;8.50;99870.00;;;;9657811;30;20291;-79
2023/03/06 15:36:30;;;;;;;22.03;14.93;;;;;8.20;99862.00;;;;9642616;30;20231;-80
2023/03/06 15:41:34;;;;;;;17.83;12.47;;;;;8.10;99870.00;;;;9644331;30;20240;-80
2023/03/06 15:46:36;;;;;;;21.03;13.10;;;;;7.80;99856.00;;;;9657599;30;20673;-81
2023/03/06 15:51:39;;;;;;;26.07;13.40;;;;;7.70;99864.00;;;;9625988;30;20682;-81
2023/03/06 15:56:43;;;;;;;19.87;12.80;;;;;7.60;99861.00;;;;9602970;30;20260;-81
2023/03/06 16:01:45;;;;;;;20.03;11.73;;;;;7.40;99858.00;;;;9649358;30;20315;-80
2023/03/06 16:06:47;;;;;;;20.67;13.60;;;;;7.30;99843.00;;;;9627002;30;20264;-80
2023/03/06 16:11:49;;;;;;;17.97;12.33;;;;;7.30;99850.00;;;;9641791;30;20209;-80
2023/03/06 16:16:55;;;;;;;18.33;10.77;;;;;7.30;99843.00;;;;9657118;30;20208;-80
2023/03/06 16:21:58;;;;;;;23.50;12.97;;;;;7.20;99837.00;;;;9611579;30;20312;-80
2023/03/06 16:27:00;;;;;;;20.20;11.30;;;;;7.10;99833.00;;;;9630812;30;20206;-81
2023/03/06 16:32:03;;;;;;;21.10;12.27;;;;;7.00;99825.00;;;;9609437;30;20219;-80
2023/03/06 16:37:05;;;;;;;18.40;11.07;;;;;7.00;99819.00;;;;9621964;30;20724;-81
2023/03/06 16:42:07;;;;;;;18.33;11.67;;;;;7.00;99802.00;;;;9621291;30;20841;-82
2023/03/06 16:47:11;;;;;;;18.00;10.70;;;;;7.00;99784.00;;;;9634256;30;20681;-80
2023/03/06 16:52:13;;;;;;;18.37;10.50;;;;;6.90;99781.00;;;;9655295;30;20582;-80
2023/03/06 16:57:16;;;;;;;20.73;11.77;;;;;6.80;99776.00;;;;9641117;30;20217;-81
2023/03/06 17:02:18;;;;;;;19.77;10.87;;;;;6.80;99787.00;;;;9652635;30;20743;-81
2023/03/06 17:07:20;;;;;;;22.10;10.93;;;;;6.70;99764.00;;;;9634975;30;20197;-81
2023/03/06 17:12:22;;;;;;;18.90;11.83;;;;;6.70;99771.00;;;;9627120;30;20308;-81
2023/03/06 17:17:24;;;;;;;20.67;12.10;;;;;6.60;99770.00;;;;9647482;30;20402;-80
2023/03/06 17:22:26;;;;;;;22.43;11.63;;;;;6.60;99773.00;;;;9640613;30;20264;-80
2023/03/06 17:27:28;;;;;;;18.30;11.37;;;;;6.60;99769.00;;;;9655871;30;20212;-80
2023/03/06 17:32:31;;;;;;;20.40;11.23;;;;;6.50;99748.00;;;;9624309;30;20208;-80
2023/03/06 17:37:33;;;;;;;19.03;10.33;;;;;6.50;99752.00;;;;9639683;30;20720;-80
2023/03/06 17:42:35;;;;;;;20.23;12.37;;;;;6.50;99753.00;;;;9653933;30;20217;-80
2023/03/06 17:47:37;;;;;;;20.77;11.77;;;;;6.40;99767.00;;;;9654653;30;20181;-81
2023/03/06 17:52:39;;;;;;;23.87;12.83;;;;;6.30;99761.00;;;;9625879;30;20215;-82
2023/03/06 17:57:42;;;;;;;21.83;13.23;;;;;6.00;99764.00;;;;9626650;30;20240;-82
2023/03/06 18:02:44;;;;;;;22.87;13.20;;;;;5.80;99752.00;;;;9639328;30;20208;-81
2023/03/06 18:07:46;;;;;;;19.50;12.67;;;;;5.60;99764.00;;;;9591025;30;20221;-80
2023/03/06 18:12:48;;;;;;;18.20;12.00;;;;;5.50;99754.00;;;;9623179;30;20231;-80
2023/03/06 18:17:50;;;;;;;17.07;10.77;;;;;5.30;99777.00;;;;9625342;30;20209;-80
2023/03/06 18:22:52;;;;;;;16.33;8.73;;;;;5.00;99762.00;;;;9612478;30;20212;-79
2023/03/06 18:27:54;;;;;;;18.00;11.77;;;;;4.90;99757.00;;;;9624770;30;20216;-79
2023/03/06 18:32:57;;;;;;;20.77;14.00;;;;;4.80;99743.00;;;;9625069;30;20220;-79
2023/03/06 18:37:59;;;;;;;20.23;12.40;;;;;4.80;99749.00;;;;9643449;30;20220;-79
2023/03/06 18:43:01;;;;;;;21.03;11.57;;;;;4.70;99735.00;;;;9646685;30;20252;-79
2023/03/06 18:48:04;;;;;;;23.17;13.37;;;;;4.70;99733.00;;;;9632911;30;20235;-79
2023/03/06 18:53:06;;;;;;;22.53;12.53;;;;;4.70;99725.00;;;;9655122;30;20205;-79
2023/03/06 18:58:08;;;;;;;19.27;11.63;;;;;4.70;99727.00;;;;9624109;30;20773;-79
2023/03/06 19:03:10;;;;;;;18.60;11.77;;;;;4.80;99724.00;;;;9627805;30;20239;-78
2023/03/06 19:08:14;;;;;;;17.83;10.03;;;;;4.80;99717.00;;;;9629352;30;20197;-78
2023/03/06 19:13:16;;;;;;;15.30;9.30;;;;;4.80;99714.00;;;;9604885;30;20299;-79
2023/03/06 19:18:18;;;;;;;16.20;10.77;;;;;4.90;99712.00;;;;9643609;30;20267;-79
2023/03/06 19:23:21;;;;;;;17.40;10.77;;;;;4.90;99721.00;;;;9630068;30;20208;-79
2023/03/06 19:28:23;;;;;;;17.43;10.20;;;;;5.00;99712.00;;;;9658413;30;20196;-78
2023/03/06 19:33:25;;;;;;;15.80;9.87;;;;;5.00;99712.00;;;;9658323;30;20727;-79
2023/03/06 19:38:27;;;;;;;16.63;10.90;;;;;5.10;99707.00;;;;9624494;30;20227;-79
2023/03/06 19:43:30;;;;;;;16.67;10.47;;;;;5.10;99695.00;;;;9658046;30;20201;-79
2023/03/06 19:48:32;;;;;;;17.17;10.60;;;;;5.10;99706.00;;;;9630139;30;20208;-79
2023/03/06 19:53:34;;;;;;;16.83;9.37;;;;;5.20;99704.00;;;;9629369;30;20585;-79
2023/03/06 19:58:37;;;;;;;17.53;10.80;;;;;5.20;99695.00;;;;9643347;30;20247;-80
2023/03/06 20:03:39;;;;;;;14.93;9.30;;;;;5.20;99692.00;;;;9636961;30;20225;-79
2023/03/06 20:08:42;;;;;;;18.87;8.97;;;;;5.20;99687.00;;;;9650428;30;20546;-79
2023/03/06 20:13:44;;;;;;;18.67;9.33;;;;;5.20;99677.00;;;;9676809;30;20212;-79
2023/03/06 20:18:48;;;;;;;16.50;9.30;;;;;5.20;99678.00;;;;9661630;30;20212;-79
2023/03/06 20:23:52;;;;;;;17.00;9.00;;;;;5.20;99674.00;;;;9642757;30;20201;-79
2023/03/06 20:28:54;;;;;;;16.23;9.37;;;;;5.10;99667.00;;;;9610198;30;20300;-78
2023/03/06 20:33:57;;;;;;;15.57;9.17;;;;;5.10;99661.00;;;;9628848;30;20212;-79
2023/03/06 20:39:02;;;;;;;9.03;6.50;;;;;5.00;99654.00;;;;9625425;30;20216;-78
2023/03/06 20:44:06;;;;;;;12.70;7.70;;;;;5.00;99657.00;;;;9621331;30;20209;-78
2023/03/06 20:49:09;;;;;;;16.90;9.33;;;;;4.90;99657.00;;;;9622117;30;20650;-78
2023/03/06 20:54:14;;;;;;;14.37;9.73;;;;;4.90;99652.00;;;;9654207;30;20197;-78
2023/03/06 20:59:16;;;;;;;14.03;8.43;;;;;4.90;99651.00;;;;9640677;30;20235;-78
2023/03/06 21:04:18;;;;;;;13.10;6.97;;;;;4.90;99652.00;;;;9675583;30;20243;-78
2023/03/06 21:09:20;;;;;;;16.03;7.97;;;;;4.90;99655.00;;;;9624652;30;20228;-78
2023/03/06 21:14:22;;;;;;;11.17;7.37;;;;;4.80;99643.00;;;;9619098;30;20221;-78
2023/03/06 21:19:24;;;;;;;11.77;6.87;;;;;4.80;99642.00;;;;9619324;30;20240;-78
2023/03/06 21:24:27;;;;;;;11.57;7.57;;;;;4.80;99639.00;;;;9653099;30;20566;-78
2023/03/06 21:29:29;;;;;;;14.40;7.00;;;;;4.70;99646.00;;;;9638506;30;20212;-78
2023/03/06 21:34:32;;;;;;;11.57;6.97;;;;;4.70;99639.00;;;;9650655;30;20244;-78
2023/03/06 21:39:33;;;;;;;11.83;6.20;;;;;4.70;99635.00;;;;9655313;30;20253;-77
2023/03/06 21:44:36;;;;;;;12.33;7.53;;;;;4.70;99633.00;;;;9603983;30;20201;-78
2023/03/06 21:49:38;;;;;;;11.27;6.30;;;;;4.70;99635.00;;;;9617273;30;20216;-78
2023/03/06 21:54:40;;;;;;;15.53;7.17;;;;;4.60;99631.00;;;;9642933;30;20217;-78
2023/03/06 21:59:42;;;;;;;9.53;5.47;;;;;4.60;99628.00;;;;9627824;30;20240;-78
2023/03/06 22:04:48;;;;;;;9.17;5.30;;;;;4.60;99623.00;;;;9624397;30;20240;-78
2023/03/06 22:09:52;;;;;;;12.90;5.57;;;;;4.60;99628.00;;;;9636719;30;20243;-78
2023/03/06 22:14:54;;;;;;;12.50;6.63;;;;;4.60;99615.00;;;;9651710;30;20227;-78
2023/03/06 22:19:56;;;;;;;9.10;5.00;;;;;4.60;99619.00;;;;9652665;30;20270;-78
2023/03/06 22:24:58;;;;;;;12.13;6.53;;;;;4.60;99620.00;;;;9644254;30;20216;-78
2023/03/06 22:30:00;;;;;;;7.13;4.87;;;;;4.50;99595.00;;;;9637766;30;20204;-79
2023/03/06 22:35:02;;;;;;;11.33;3.83;;;;;4.50;99614.00;;;;9614051;30;20253;-79
2023/03/06 22:40:05;;;;;;;7.67;4.43;;;;;4.40;99614.00;;;;9618093;30;20220;-78
2023/03/06 22:45:07;;;;;;;8.27;5.33;;;;;4.40;99613.00;;;;9616728;30;20607;-79
2023/03/06 22:50:10;;;;;;;9.80;3.70;;;;;4.40;99604.00;;;;9628893;30;20205;-79
2023/03/06 22:55:12;;;;;;;8.17;4.00;;;;;4.40;99599.00;;;;9638573;30;20243;-79
2023/03/06 23:00:14;;;;;;;7.70;4.77;;;;;4.40;99594.00;;;;9636670;30;20240;-79
2023/03/06 23:05:16;;;;;;;10.60;4.43;;;;;4.40;99576.00;;;;9622091;30;20236;-78
2023/03/06 23:10:18;;;;;;;4.97;3.20;;;;;4.40;99574.00;;;;9651358;30;20212;-78
2023/03/06 23:15:39;;;;;;;7.03;3.87;;;;;4.40;99580.00;;;;9652338;30;20331;-79
2023/03/06 23:20:59;;;;;;;7.27;3.83;;;;;4.40;99588.00;;;;9647096;30;20193;-79
2023/03/06 23:26:24;;;;;;;7.70;3.93;;;;;4.30;99575.00;;;;9618820;30;20347;-79
2023/03/06 23:31:28;;;;;;;7.53;4.00;;;;;4.30;99572.00;;;;9615116;30;20255;-78
2023/03/06 23:36:31;;;;;;;10.20;4.87;;;;;4.40;99565.00;;;;9641162;30;20276;-79
2023/03/06 23:41:32;;;;;;;11.33;4.90;;;;;4.40;99554.00;;;;9642924;30;20208;-79
2023/03/06 23:46:34;;;;;;;11.00;5.20;;;;;4.40;99571.00;;;;9628627;30;20662;-79
2023/03/06 23:51:36;;;;;;;10.17;4.60;;;;;4.40;99554.00;;;;9627317;30;20688;-79
2023/03/06 23:56:38;;;;;;;10.07;5.20;;;;;4.40;99564.00;;;;9657155;30;20213;-78
